Terminal Aerodrome Forecast
Issued by NWS

Home | Current Version | Previous Version | Text Only | Print | Product List | Glossary On
Versions: 1 2 3 4 5 6 7 8 9 10 11 12
000
FTUS45 KPSR 281120
TAFIWA
TAF
KIWA 281120Z 2812/2912 13009KT P6SM FEW150 BKN250
     FM281600 21012KT P6SM FEW060 BKN110
     FM282100 28025G32KT 5SM BLDU FEW110 FEW250
     FM290400 31018G25KT P6SM SKC
     FM290600 34008KT P6SM SKC
      AMD LTD TO CLD VIS AND WIND TIL 281300=

USA.gov is the U.S. government's official web portal to all federal, state and local government web resources and services.